sensor_id;sensor_type;location;lat;lon;timestamp;P1;durP1;ratioP1;P2;durP2;ratioP2
29030;SDS011;16122;50.236;11.734;2023-06-10T00:01:42;8.93;;;7.60;;
29030;SDS011;16122;50.236;11.734;2023-06-10T00:04:08;8.90;;;8.10;;
29030;SDS011;16122;50.236;11.734;2023-06-10T00:06:34;9.07;;;7.83;;
29030;SDS011;16122;50.236;11.734;2023-06-10T00:09:05;8.70;;;7.90;;
29030;SDS011;16122;50.236;11.734;2023-06-10T00:11:35;9.90;;;9.00;;
29030;SDS011;16122;50.236;11.734;2023-06-10T00:14:01;9.67;;;8.77;;
29030;SDS011;16122;50.236;11.734;2023-06-10T00:16:27;8.67;;;7.87;;
29030;SDS011;16122;50.236;11.734;2023-06-10T00:18:53;8.80;;;7.93;;
29030;SDS011;16122;50.236;11.734;2023-06-10T00:21:21;7.83;;;7.20;;
29030;SDS011;16122;50.236;11.734;2023-06-10T00:23:47;8.47;;;7.67;;
29030;SDS011;16122;50.236;11.734;2023-06-10T00:26:13;8.53;;;7.80;;
29030;SDS011;16122;50.236;11.734;2023-06-10T00:28:42;10.77;;;8.30;;
29030;SDS011;16122;50.236;11.734;2023-06-10T00:31:10;8.47;;;7.77;;
29030;SDS011;16122;50.236;11.734;2023-06-10T00:33:37;8.60;;;7.70;;
29030;SDS011;16122;50.236;11.734;2023-06-10T00:36:03;8.50;;;7.80;;
29030;SDS011;16122;50.236;11.734;2023-06-10T00:38:29;8.47;;;7.77;;
29030;SDS011;16122;50.236;11.734;2023-06-10T00:40:55;8.60;;;7.83;;
29030;SDS011;16122;50.236;11.734;2023-06-10T00:43:21;9.13;;;8.30;;
29030;SDS011;16122;50.236;11.734;2023-06-10T00:45:47;8.90;;;8.10;;
29030;SDS011;16122;50.236;11.734;2023-06-10T00:48:13;9.13;;;8.27;;
29030;SDS011;16122;50.236;11.734;2023-06-10T00:50:39;9.07;;;8.30;;
29030;SDS011;16122;50.236;11.734;2023-06-10T00:53:06;8.77;;;7.97;;
29030;SDS011;16122;50.236;11.734;2023-06-10T00:55:32;8.60;;;7.80;;
29030;SDS011;16122;50.236;11.734;2023-06-10T00:57:59;8.73;;;7.83;;
29030;SDS011;16122;50.236;11.734;2023-06-10T01:00:26;8.40;;;7.67;;
29030;SDS011;16122;50.236;11.734;2023-06-10T01:02:53;8.37;;;7.67;;
29030;SDS011;16122;50.236;11.734;2023-06-10T01:05:19;9.13;;;8.23;;
29030;SDS011;16122;50.236;11.734;2023-06-10T01:08:01;9.67;;;8.87;;
29030;SDS011;16122;50.236;11.734;2023-06-10T01:13:07;8.90;;;8.10;;
29030;SDS011;16122;50.236;11.734;2023-06-10T01:15:37;8.47;;;7.77;;
29030;SDS011;16122;50.236;11.734;2023-06-10T01:20:35;9.37;;;8.47;;
29030;SDS011;16122;50.236;11.734;2023-06-10T01:23:05;9.87;;;8.97;;
29030;SDS011;16122;50.236;11.734;2023-06-10T01:25:32;9.53;;;8.63;;
29030;SDS011;16122;50.236;11.734;2023-06-10T01:31:09;9.77;;;8.77;;
29030;SDS011;16122;50.236;11.734;2023-06-10T01:33:47;9.57;;;8.67;;
29030;SDS011;16122;50.236;11.734;2023-06-10T01:36:17;8.63;;;7.93;;
29030;SDS011;16122;50.236;11.734;2023-06-10T01:38:45;8.80;;;8.10;;
29030;SDS011;16122;50.236;11.734;2023-06-10T01:41:13;9.60;;;8.70;;
29030;SDS011;16122;50.236;11.734;2023-06-10T01:43:43;8.23;;;7.43;;
29030;SDS011;16122;50.236;11.734;2023-06-10T01:46:09;9.37;;;8.57;;
29030;SDS011;16122;50.236;11.734;2023-06-10T01:48:36;9.50;;;8.60;;
29030;SDS011;16122;50.236;11.734;2023-06-10T01:51:03;9.00;;;8.20;;
29030;SDS011;16122;50.236;11.734;2023-06-10T01:53:29;8.90;;;7.83;;
29030;SDS011;16122;50.236;11.734;2023-06-10T01:55:55;10.60;;;9.70;;
29030;SDS011;16122;50.236;11.734;2023-06-10T01:58:22;9.67;;;8.87;;
29030;SDS011;16122;50.236;11.734;2023-06-10T02:00:48;9.53;;;8.73;;
29030;SDS011;16122;50.236;11.734;2023-06-10T02:03:14;11.10;;;8.47;;
29030;SDS011;16122;50.236;11.734;2023-06-10T02:05:41;9.87;;;8.57;;
29030;SDS011;16122;50.236;11.734;2023-06-10T02:08:07;8.50;;;7.70;;
29030;SDS011;16122;50.236;11.734;2023-06-10T02:10:33;8.90;;;8.10;;
29030;SDS011;16122;50.236;11.734;2023-06-10T02:12:59;8.70;;;7.97;;
29030;SDS011;16122;50.236;11.734;2023-06-10T02:15:25;9.90;;;8.77;;
29030;SDS011;16122;50.236;11.734;2023-06-10T02:17:51;9.50;;;8.60;;
29030;SDS011;16122;50.236;11.734;2023-06-10T02:20:17;12.07;;;8.17;;
29030;SDS011;16122;50.236;11.734;2023-06-10T02:22:43;10.07;;;9.17;;
29030;SDS011;16122;50.236;11.734;2023-06-10T02:25:09;9.57;;;8.67;;
29030;SDS011;16122;50.236;11.734;2023-06-10T02:27:35;9.63;;;8.83;;
29030;SDS011;16122;50.236;11.734;2023-06-10T02:30:01;17.10;;;9.40;;
29030;SDS011;16122;50.236;11.734;2023-06-10T02:32:28;20.10;;;10.13;;
29030;SDS011;16122;50.236;11.734;2023-06-10T02:34:54;10.30;;;7.97;;
29030;SDS011;16122;50.236;11.734;2023-06-10T02:37:22;9.17;;;8.37;;
29030;SDS011;16122;50.236;11.734;2023-06-10T02:39:48;10.10;;;9.20;;
29030;SDS011;16122;50.236;11.734;2023-06-10T02:42:14;10.27;;;9.20;;
29030;SDS011;16122;50.236;11.734;2023-06-10T02:44:40;9.73;;;8.83;;
29030;SDS011;16122;50.236;11.734;2023-06-10T02:47:09;9.90;;;9.00;;
29030;SDS011;16122;50.236;11.734;2023-06-10T02:49:37;9.73;;;8.83;;
29030;SDS011;16122;50.236;11.734;2023-06-10T02:52:02;18.13;;;11.70;;
29030;SDS011;16122;50.236;11.734;2023-06-10T02:54:28;10.20;;;9.20;;
29030;SDS011;16122;50.236;11.734;2023-06-10T02:56:55;10.07;;;9.00;;
29030;SDS011;16122;50.236;11.734;2023-06-10T02:59:24;10.77;;;9.77;;
29030;SDS011;16122;50.236;11.734;2023-06-10T03:01:53;10.53;;;9.50;;
29030;SDS011;16122;50.236;11.734;2023-06-10T03:04:19;10.27;;;9.37;;
29030;SDS011;16122;50.236;11.734;2023-06-10T03:06:54;10.03;;;9.10;;
29030;SDS011;16122;50.236;11.734;2023-06-10T03:09:26;10.57;;;9.57;;
29030;SDS011;16122;50.236;11.734;2023-06-10T03:11:55;10.43;;;9.30;;
29030;SDS011;16122;50.236;11.734;2023-06-10T03:14:21;10.40;;;9.50;;
29030;SDS011;16122;50.236;11.734;2023-06-10T03:16:46;10.70;;;9.70;;
29030;SDS011;16122;50.236;11.734;2023-06-10T03:19:14;10.50;;;8.60;;
29030;SDS011;16122;50.236;11.734;2023-06-10T03:21:44;11.87;;;9.63;;
29030;SDS011;16122;50.236;11.734;2023-06-10T03:24:12;9.57;;;8.80;;
29030;SDS011;16122;50.236;11.734;2023-06-10T03:26:38;10.93;;;9.93;;
29030;SDS011;16122;50.236;11.734;2023-06-10T03:29:06;10.03;;;9.20;;
29030;SDS011;16122;50.236;11.734;2023-06-10T03:31:32;10.53;;;9.53;;
29030;SDS011;16122;50.236;11.734;2023-06-10T03:34:00;10.30;;;9.30;;
29030;SDS011;16122;50.236;11.734;2023-06-10T03:36:26;10.83;;;9.83;;
29030;SDS011;16122;50.236;11.734;2023-06-10T03:38:55;11.00;;;10.00;;
29030;SDS011;16122;50.236;11.734;2023-06-10T03:41:22;9.70;;;8.90;;
29030;SDS011;16122;50.236;11.734;2023-06-10T03:43:50;10.23;;;9.37;;
29030;SDS011;16122;50.236;11.734;2023-06-10T03:46:16;10.60;;;9.70;;
29030;SDS011;16122;50.236;11.734;2023-06-10T03:48:42;11.03;;;10.13;;
29030;SDS011;16122;50.236;11.734;2023-06-10T03:51:09;9.93;;;9.10;;
29030;SDS011;16122;50.236;11.734;2023-06-10T03:53:34;11.37;;;10.17;;
29030;SDS011;16122;50.236;11.734;2023-06-10T03:56:00;10.90;;;9.90;;
29030;SDS011;16122;50.236;11.734;2023-06-10T03:58:27;11.03;;;10.00;;
29030;SDS011;16122;50.236;11.734;2023-06-10T04:00:53;11.37;;;10.33;;
29030;SDS011;16122;50.236;11.734;2023-06-10T04:03:26;11.93;;;10.80;;
29030;SDS011;16122;50.236;11.734;2023-06-10T04:05:52;11.37;;;10.27;;
29030;SDS011;16122;50.236;11.734;2023-06-10T04:08:18;11.57;;;10.43;;
29030;SDS011;16122;50.236;11.734;2023-06-10T04:10:44;10.90;;;10.00;;
29030;SDS011;16122;50.236;11.734;2023-06-10T04:13:10;10.53;;;9.63;;
29030;SDS011;16122;50.236;11.734;2023-06-10T04:15:41;10.97;;;9.90;;
29030;SDS011;16122;50.236;11.734;2023-06-10T04:18:10;12.33;;;11.20;;
29030;SDS011;16122;50.236;11.734;2023-06-10T04:20:36;12.10;;;11.00;;
29030;SDS011;16122;50.236;11.734;2023-06-10T04:23:03;11.43;;;10.37;;
29030;SDS011;16122;50.236;11.734;2023-06-10T04:25:29;12.50;;;11.33;;
29030;SDS011;16122;50.236;11.734;2023-06-10T04:27:55;12.13;;;11.13;;
29030;SDS011;16122;50.236;11.734;2023-06-10T04:30:21;11.70;;;10.60;;
29030;SDS011;16122;50.236;11.734;2023-06-10T04:32:48;11.90;;;10.90;;
29030;SDS011;16122;50.236;11.734;2023-06-10T04:35:16;10.00;;;9.20;;
29030;SDS011;16122;50.236;11.734;2023-06-10T04:37:43;11.60;;;10.60;;
29030;SDS011;16122;50.236;11.734;2023-06-10T04:40:10;12.63;;;11.10;;
29030;SDS011;16122;50.236;11.734;2023-06-10T04:42:36;12.37;;;11.20;;
29030;SDS011;16122;50.236;11.734;2023-06-10T04:45:02;12.13;;;11.03;;
29030;SDS011;16122;50.236;11.734;2023-06-10T04:47:31;11.23;;;10.10;;
29030;SDS011;16122;50.236;11.734;2023-06-10T04:49:58;12.13;;;11.13;;
29030;SDS011;16122;50.236;11.734;2023-06-10T04:52:25;11.23;;;10.27;;
29030;SDS011;16122;50.236;11.734;2023-06-10T04:54:51;10.97;;;10.03;;
29030;SDS011;16122;50.236;11.734;2023-06-10T04:57:18;12.07;;;10.87;;
29030;SDS011;16122;50.236;11.734;2023-06-10T04:59:45;12.37;;;11.23;;
29030;SDS011;16122;50.236;11.734;2023-06-10T05:02:12;11.60;;;10.50;;
29030;SDS011;16122;50.236;11.734;2023-06-10T05:04:37;10.70;;;9.80;;
29030;SDS011;16122;50.236;11.734;2023-06-10T05:07:04;11.83;;;10.83;;
29030;SDS011;16122;50.236;11.734;2023-06-10T05:09:30;12.23;;;10.47;;
29030;SDS011;16122;50.236;11.734;2023-06-10T05:11:57;10.80;;;9.90;;
29030;SDS011;16122;50.236;11.734;2023-06-10T05:14:23;11.20;;;10.10;;
29030;SDS011;16122;50.236;11.734;2023-06-10T05:16:49;11.30;;;10.30;;
29030;SDS011;16122;50.236;11.734;2023-06-10T05:19:15;12.90;;;10.20;;
29030;SDS011;16122;50.236;11.734;2023-06-10T05:21:41;10.80;;;9.80;;
29030;SDS011;16122;50.236;11.734;2023-06-10T05:24:07;10.70;;;9.63;;
29030;SDS011;16122;50.236;11.734;2023-06-10T05:26:33;11.30;;;10.30;;
29030;SDS011;16122;50.236;11.734;2023-06-10T05:29:02;11.63;;;10.33;;
29030;SDS011;16122;50.236;11.734;2023-06-10T05:31:32;13.90;;;11.70;;
29030;SDS011;16122;50.236;11.734;2023-06-10T05:33:57;11.23;;;10.30;;
29030;SDS011;16122;50.236;11.734;2023-06-10T05:36:23;11.53;;;10.53;;
29030;SDS011;16122;50.236;11.734;2023-06-10T05:38:51;14.33;;;10.50;;
29030;SDS011;16122;50.236;11.734;2023-06-10T05:41:19;13.80;;;10.90;;
29030;SDS011;16122;50.236;11.734;2023-06-10T05:43:47;11.97;;;10.77;;
29030;SDS011;16122;50.236;11.734;2023-06-10T05:46:12;11.20;;;10.10;;
29030;SDS011;16122;50.236;11.734;2023-06-10T05:48:38;10.90;;;9.90;;
29030;SDS011;16122;50.236;11.734;2023-06-10T05:51:04;11.30;;;10.30;;
29030;SDS011;16122;50.236;11.734;2023-06-10T05:53:31;12.20;;;11.00;;
29030;SDS011;16122;50.236;11.734;2023-06-10T05:55:57;12.33;;;11.00;;
29030;SDS011;16122;50.236;11.734;2023-06-10T05:58:23;12.00;;;10.80;;
29030;SDS011;16122;50.236;11.734;2023-06-10T06:00:49;12.10;;;10.93;;
29030;SDS011;16122;50.236;11.734;2023-06-10T06:03:17;11.17;;;10.07;;
29030;SDS011;16122;50.236;11.734;2023-06-10T06:05:43;10.90;;;9.80;;
29030;SDS011;16122;50.236;11.734;2023-06-10T06:08:10;11.20;;;10.17;;
29030;SDS011;16122;50.236;11.734;2023-06-10T06:10:35;11.53;;;9.70;;
29030;SDS011;16122;50.236;11.734;2023-06-10T06:13:01;11.50;;;9.90;;
29030;SDS011;16122;50.236;11.734;2023-06-10T06:15:27;12.40;;;11.20;;
29030;SDS011;16122;50.236;11.734;2023-06-10T06:17:53;14.47;;;10.97;;
29030;SDS011;16122;50.236;11.734;2023-06-10T06:20:19;11.50;;;10.30;;
29030;SDS011;16122;50.236;11.734;2023-06-10T06:22:45;13.70;;;9.93;;
29030;SDS011;16122;50.236;11.734;2023-06-10T06:25:11;16.40;;;10.97;;
29030;SDS011;16122;50.236;11.734;2023-06-10T06:27:37;13.83;;;10.50;;
29030;SDS011;16122;50.236;11.734;2023-06-10T06:30:03;15.30;;;10.00;;
29030;SDS011;16122;50.236;11.734;2023-06-10T06:32:30;12.03;;;10.27;;
29030;SDS011;16122;50.236;11.734;2023-06-10T06:34:56;13.90;;;9.63;;
29030;SDS011;16122;50.236;11.734;2023-06-10T06:37:22;13.50;;;9.87;;
29030;SDS011;16122;50.236;11.734;2023-06-10T06:39:53;16.10;;;10.70;;
29030;SDS011;16122;50.236;11.734;2023-06-10T06:42:19;14.40;;;9.83;;
29030;SDS011;16122;50.236;11.734;2023-06-10T06:45:11;13.40;;;9.90;;
29030;SDS011;16122;50.236;11.734;2023-06-10T06:47:38;15.57;;;9.60;;
29030;SDS011;16122;50.236;11.734;2023-06-10T06:50:03;12.70;;;9.53;;
29030;SDS011;16122;50.236;11.734;2023-06-10T06:52:29;14.17;;;10.40;;
29030;SDS011;16122;50.236;11.734;2023-06-10T06:54:55;16.30;;;10.50;;
29030;SDS011;16122;50.236;11.734;2023-06-10T06:57:21;13.93;;;10.10;;
29030;SDS011;16122;50.236;11.734;2023-06-10T06:59:48;15.43;;;10.77;;
29030;SDS011;16122;50.236;11.734;2023-06-10T07:02:14;13.37;;;9.17;;
29030;SDS011;16122;50.236;11.734;2023-06-10T07:04:40;16.50;;;10.27;;
29030;SDS011;16122;50.236;11.734;2023-06-10T07:07:07;14.87;;;10.77;;
29030;SDS011;16122;50.236;11.734;2023-06-10T07:09:34;15.13;;;9.87;;
29030;SDS011;16122;50.236;11.734;2023-06-10T07:11:59;18.53;;;11.73;;
29030;SDS011;16122;50.236;11.734;2023-06-10T07:14:25;11.97;;;9.40;;
29030;SDS011;16122;50.236;11.734;2023-06-10T07:16:51;15.20;;;9.47;;
29030;SDS011;16122;50.236;11.734;2023-06-10T07:19:17;15.07;;;10.70;;
29030;SDS011;16122;50.236;11.734;2023-06-10T07:21:43;16.70;;;9.60;;
29030;SDS011;16122;50.236;11.734;2023-06-10T07:24:08;16.57;;;10.30;;
29030;SDS011;16122;50.236;11.734;2023-06-10T07:26:34;16.77;;;9.60;;
29030;SDS011;16122;50.236;11.734;2023-06-10T07:29:00;13.47;;;9.40;;
29030;SDS011;16122;50.236;11.734;2023-06-10T07:31:26;10.57;;;9.57;;
29030;SDS011;16122;50.236;11.734;2023-06-10T07:33:52;12.83;;;9.23;;
29030;SDS011;16122;50.236;11.734;2023-06-10T07:36:18;11.03;;;8.80;;
29030;SDS011;16122;50.236;11.734;2023-06-10T07:38:43;13.63;;;9.70;;
29030;SDS011;16122;50.236;11.734;2023-06-10T07:41:09;11.70;;;9.57;;
29030;SDS011;16122;50.236;11.734;2023-06-10T07:43:36;12.17;;;9.70;;
29030;SDS011;16122;50.236;11.734;2023-06-10T07:46:03;11.30;;;9.47;;
29030;SDS011;16122;50.236;11.734;2023-06-10T07:48:30;11.03;;;9.43;;
29030;SDS011;16122;50.236;11.734;2023-06-10T07:50:56;9.40;;;8.13;;
29030;SDS011;16122;50.236;11.734;2023-06-10T07:53:22;12.83;;;9.00;;
29030;SDS011;16122;50.236;11.734;2023-06-10T07:55:48;9.40;;;8.37;;
29030;SDS011;16122;50.236;11.734;2023-06-10T07:58:14;10.07;;;8.97;;
29030;SDS011;16122;50.236;11.734;2023-06-10T08:00:40;10.17;;;8.40;;
29030;SDS011;16122;50.236;11.734;2023-06-10T08:03:05;12.83;;;8.97;;
29030;SDS011;16122;50.236;11.734;2023-06-10T08:05:32;11.37;;;8.50;;
29030;SDS011;16122;50.236;11.734;2023-06-10T08:07:58;9.40;;;8.13;;
29030;SDS011;16122;50.236;11.734;2023-06-10T08:10:24;9.57;;;8.67;;
29030;SDS011;16122;50.236;11.734;2023-06-10T08:12:49;10.40;;;8.13;;
29030;SDS011;16122;50.236;11.734;2023-06-10T08:15:15;9.93;;;7.80;;
29030;SDS011;16122;50.236;11.734;2023-06-10T08:17:41;11.60;;;8.60;;
29030;SDS011;16122;50.236;11.734;2023-06-10T08:20:07;9.67;;;8.13;;
29030;SDS011;16122;50.236;11.734;2023-06-10T08:22:33;10.40;;;8.00;;
29030;SDS011;16122;50.236;11.734;2023-06-10T08:24:59;10.67;;;8.03;;
29030;SDS011;16122;50.236;11.734;2023-06-10T08:27:25;8.53;;;7.63;;
29030;SDS011;16122;50.236;11.734;2023-06-10T08:29:51;8.53;;;7.50;;
29030;SDS011;16122;50.236;11.734;2023-06-10T08:32:17;9.80;;;8.27;;
29030;SDS011;16122;50.236;11.734;2023-06-10T08:34:43;8.90;;;8.00;;
29030;SDS011;16122;50.236;11.734;2023-06-10T08:37:09;9.97;;;7.93;;
29030;SDS011;16122;50.236;11.734;2023-06-10T08:39:34;10.00;;;8.03;;
29030;SDS011;16122;50.236;11.734;2023-06-10T08:42:10;8.53;;;7.63;;
29030;SDS011;16122;50.236;11.734;2023-06-10T08:44:46;9.80;;;7.87;;
29030;SDS011;16122;50.236;11.734;2023-06-10T08:47:14;9.53;;;7.70;;
29030;SDS011;16122;50.236;11.734;2023-06-10T08:49:45;9.53;;;7.87;;
29030;SDS011;16122;50.236;11.734;2023-06-10T08:52:16;8.23;;;7.40;;
29030;SDS011;16122;50.236;11.734;2023-06-10T08:54:44;8.83;;;7.47;;
29030;SDS011;16122;50.236;11.734;2023-06-10T08:57:21;8.83;;;7.87;;
29030;SDS011;16122;50.236;11.734;2023-06-10T08:59:48;11.20;;;7.90;;
29030;SDS011;16122;50.236;11.734;2023-06-10T09:02:14;9.90;;;7.77;;
29030;SDS011;16122;50.236;11.734;2023-06-10T09:04:43;9.37;;;8.40;;
29030;SDS011;16122;50.236;11.734;2023-06-10T09:07:11;9.70;;;8.33;;
29030;SDS011;16122;50.236;11.734;2023-06-10T09:09:39;10.60;;;8.60;;
29030;SDS011;16122;50.236;11.734;2023-06-10T09:12:07;9.77;;;8.87;;
29030;SDS011;16122;50.236;11.734;2023-06-10T09:14:33;9.80;;;8.43;;
29030;SDS011;16122;50.236;11.734;2023-06-10T09:16:59;10.23;;;9.23;;
29030;SDS011;16122;50.236;11.734;2023-06-10T09:19:25;12.57;;;8.97;;
29030;SDS011;16122;50.236;11.734;2023-06-10T09:21:53;10.37;;;9.37;;
29030;SDS011;16122;50.236;11.734;2023-06-10T09:24:20;9.90;;;8.90;;
29030;SDS011;16122;50.236;11.734;2023-06-10T09:26:48;12.83;;;9.20;;
29030;SDS011;16122;50.236;11.734;2023-06-10T09:29:14;22.73;;;11.43;;
29030;SDS011;16122;50.236;11.734;2023-06-10T09:31:40;23.37;;;11.93;;
29030;SDS011;16122;50.236;11.734;2023-06-10T09:34:10;20.13;;;11.87;;
29030;SDS011;16122;50.236;11.734;2023-06-10T09:36:38;20.43;;;11.93;;
29030;SDS011;16122;50.236;11.734;2023-06-10T09:39:04;24.60;;;13.07;;
29030;SDS011;16122;50.236;11.734;2023-06-10T09:41:42;26.67;;;14.10;;
29030;SDS011;16122;50.236;11.734;2023-06-10T09:44:16;24.43;;;11.13;;
29030;SDS011;16122;50.236;11.734;2023-06-10T09:46:47;20.23;;;11.80;;
29030;SDS011;16122;50.236;11.734;2023-06-10T09:49:16;13.63;;;10.80;;
29030;SDS011;16122;50.236;11.734;2023-06-10T09:51:52;16.53;;;11.50;;
29030;SDS011;16122;50.236;11.734;2023-06-10T09:54:22;14.97;;;9.40;;
29030;SDS011;16122;50.236;11.734;2023-06-10T09:56:48;16.53;;;10.50;;
29030;SDS011;16122;50.236;11.734;2023-06-10T09:59:15;14.37;;;10.57;;
29030;SDS011;16122;50.236;11.734;2023-06-10T10:01:41;15.43;;;9.43;;
29030;SDS011;16122;50.236;11.734;2023-06-10T10:04:07;11.07;;;9.47;;
29030;SDS011;16122;50.236;11.734;2023-06-10T10:06:33;10.10;;;9.00;;
29030;SDS011;16122;50.236;11.734;2023-06-10T10:09:00;11.60;;;9.50;;
29030;SDS011;16122;50.236;11.734;2023-06-10T10:11:26;10.47;;;9.37;;
29030;SDS011;16122;50.236;11.734;2023-06-10T10:13:52;11.07;;;8.27;;
29030;SDS011;16122;50.236;11.734;2023-06-10T10:16:19;12.73;;;9.00;;
29030;SDS011;16122;50.236;11.734;2023-06-10T10:18:59;10.10;;;8.33;;
29030;SDS011;16122;50.236;11.734;2023-06-10T10:21:30;10.93;;;9.83;;
29030;SDS011;16122;50.236;11.734;2023-06-10T10:24:05;10.80;;;9.07;;
29030;SDS011;16122;50.236;11.734;2023-06-10T10:26:38;9.77;;;8.77;;
29030;SDS011;16122;50.236;11.734;2023-06-10T10:31:39;9.93;;;8.90;;
29030;SDS011;16122;50.236;11.734;2023-06-10T10:34:15;11.13;;;9.77;;
29030;SDS011;16122;50.236;11.734;2023-06-10T10:36:44;10.60;;;8.60;;
29030;SDS011;16122;50.236;11.734;2023-06-10T10:39:11;9.63;;;8.73;;
29030;SDS011;16122;50.236;11.734;2023-06-10T10:41:37;10.13;;;9.00;;
29030;SDS011;16122;50.236;11.734;2023-06-10T10:44:05;9.63;;;8.70;;
29030;SDS011;16122;50.236;11.734;2023-06-10T10:46:41;10.13;;;9.10;;
29030;SDS011;16122;50.236;11.734;2023-06-10T10:49:15;11.33;;;9.93;;
29030;SDS011;16122;50.236;11.734;2023-06-10T10:52:03;11.33;;;10.27;;
29030;SDS011;16122;50.236;11.734;2023-06-10T10:54:32;11.33;;;10.27;;
29030;SDS011;16122;50.236;11.734;2023-06-10T10:59:44;11.77;;;9.93;;
29030;SDS011;16122;50.236;11.734;2023-06-10T11:05:09;11.33;;;10.33;;
29030;SDS011;16122;50.236;11.734;2023-06-10T11:07:36;12.17;;;9.60;;
29030;SDS011;16122;50.236;11.734;2023-06-10T11:10:05;11.03;;;10.03;;
29030;SDS011;16122;50.236;11.734;2023-06-10T11:15:32;11.60;;;10.43;;
29030;SDS011;16122;50.236;11.734;2023-06-10T11:31:18;12.73;;;11.40;;
29030;SDS011;16122;50.236;11.734;2023-06-10T11:33:48;13.33;;;12.00;;
29030;SDS011;16122;50.236;11.734;2023-06-10T11:36:18;12.13;;;11.00;;
29030;SDS011;16122;50.236;11.734;2023-06-10T11:38:44;12.90;;;11.60;;
29030;SDS011;16122;50.236;11.734;2023-06-10T11:41:14;11.97;;;10.77;;
29030;SDS011;16122;50.236;11.734;2023-06-10T11:43:44;11.30;;;10.20;;
29030;SDS011;16122;50.236;11.734;2023-06-10T11:46:11;12.97;;;11.47;;
29030;SDS011;16122;50.236;11.734;2023-06-10T11:48:37;12.53;;;11.33;;
29030;SDS011;16122;50.236;11.734;2023-06-10T11:51:06;11.90;;;10.70;;
29030;SDS011;16122;50.236;11.734;2023-06-10T11:53:33;12.50;;;11.30;;
29030;SDS011;16122;50.236;11.734;2023-06-10T11:55:59;12.17;;;10.97;;
29030;SDS011;16122;50.236;11.734;2023-06-10T11:58:25;11.47;;;10.13;;
29030;SDS011;16122;50.236;11.734;2023-06-10T12:00:51;12.40;;;11.20;;
29030;SDS011;16122;50.236;11.734;2023-06-10T12:03:19;13.50;;;12.17;;
29030;SDS011;16122;50.236;11.734;2023-06-10T12:05:57;12.03;;;10.43;;
29030;SDS011;16122;50.236;11.734;2023-06-10T12:08:23;14.50;;;11.73;;
29030;SDS011;16122;50.236;11.734;2023-06-10T12:10:49;12.20;;;11.10;;
29030;SDS011;16122;50.236;11.734;2023-06-10T12:13:15;13.97;;;11.47;;
29030;SDS011;16122;50.236;11.734;2023-06-10T12:15:44;11.17;;;10.00;;
29030;SDS011;16122;50.236;11.734;2023-06-10T12:20:46;12.83;;;10.23;;
29030;SDS011;16122;50.236;11.734;2023-06-10T12:23:12;15.60;;;10.90;;
29030;SDS011;16122;50.236;11.734;2023-06-10T12:25:43;13.33;;;10.97;;
29030;SDS011;16122;50.236;11.734;2023-06-10T12:28:25;12.23;;;11.00;;
29030;SDS011;16122;50.236;11.734;2023-06-10T12:30:52;14.00;;;11.20;;
29030;SDS011;16122;50.236;11.734;2023-06-10T12:33:35;12.87;;;11.67;;
29030;SDS011;16122;50.236;11.734;2023-06-10T12:36:00;13.47;;;12.30;;
29030;SDS011;16122;50.236;11.734;2023-06-10T12:38:26;16.30;;;12.23;;
29030;SDS011;16122;50.236;11.734;2023-06-10T12:40:52;12.83;;;11.63;;
29030;SDS011;16122;50.236;11.734;2023-06-10T12:43:22;14.10;;;11.80;;
29030;SDS011;16122;50.236;11.734;2023-06-10T12:45:49;12.30;;;11.20;;
29030;SDS011;16122;50.236;11.734;2023-06-10T12:48:21;12.70;;;11.47;;
29030;SDS011;16122;50.236;11.734;2023-06-10T12:50:53;12.30;;;10.90;;
29030;SDS011;16122;50.236;11.734;2023-06-10T12:53:23;11.90;;;10.80;;
29030;SDS011;16122;50.236;11.734;2023-06-10T12:55:51;12.43;;;11.30;;
29030;SDS011;16122;50.236;11.734;2023-06-10T12:58:19;10.47;;;9.50;;
29030;SDS011;16122;50.236;11.734;2023-06-10T13:00:47;12.20;;;11.00;;
29030;SDS011;16122;50.236;11.734;2023-06-10T13:03:14;10.83;;;9.93;;
29030;SDS011;16122;50.236;11.734;2023-06-10T13:05:40;12.27;;;11.20;;
29030;SDS011;16122;50.236;11.734;2023-06-10T13:08:06;10.33;;;9.33;;
29030;SDS011;16122;50.236;11.734;2023-06-10T13:10:35;10.50;;;9.40;;
29030;SDS011;16122;50.236;11.734;2023-06-10T13:13:02;11.47;;;10.30;;
29030;SDS011;16122;50.236;11.734;2023-06-10T13:15:31;10.87;;;9.37;;
29030;SDS011;16122;50.236;11.734;2023-06-10T13:17:57;11.00;;;9.90;;
29030;SDS011;16122;50.236;11.734;2023-06-10T13:20:23;10.80;;;9.70;;
29030;SDS011;16122;50.236;11.734;2023-06-10T13:22:49;11.17;;;9.70;;
29030;SDS011;16122;50.236;11.734;2023-06-10T13:25:15;11.67;;;10.47;;
29030;SDS011;16122;50.236;11.734;2023-06-10T13:30:16;11.47;;;10.43;;
29030;SDS011;16122;50.236;11.734;2023-06-10T13:32:42;11.93;;;10.83;;
29030;SDS011;16122;50.236;11.734;2023-06-10T13:35:08;13.80;;;11.07;;
29030;SDS011;16122;50.236;11.734;2023-06-10T13:37:34;11.33;;;10.33;;
29030;SDS011;16122;50.236;11.734;2023-06-10T13:40:01;11.23;;;10.13;;
29030;SDS011;16122;50.236;11.734;2023-06-10T13:42:27;12.50;;;11.20;;
29030;SDS011;16122;50.236;11.734;2023-06-10T13:44:54;10.70;;;9.70;;
29030;SDS011;16122;50.236;11.734;2023-06-10T13:47:21;12.20;;;11.07;;
29030;SDS011;16122;50.236;11.734;2023-06-10T13:49:47;10.93;;;9.93;;
29030;SDS011;16122;50.236;11.734;2023-06-10T13:52:13;15.47;;;11.70;;
29030;SDS011;16122;50.236;11.734;2023-06-10T13:54:39;12.87;;;11.53;;
29030;SDS011;16122;50.236;11.734;2023-06-10T13:57:05;13.90;;;11.27;;
29030;SDS011;16122;50.236;11.734;2023-06-10T13:59:31;11.87;;;10.63;;
29030;SDS011;16122;50.236;11.734;2023-06-10T14:01:57;11.67;;;10.57;;
29030;SDS011;16122;50.236;11.734;2023-06-10T14:04:23;11.30;;;10.30;;
29030;SDS011;16122;50.236;11.734;2023-06-10T14:06:49;10.27;;;9.37;;
29030;SDS011;16122;50.236;11.734;2023-06-10T14:09:14;11.03;;;9.93;;
29030;SDS011;16122;50.236;11.734;2023-06-10T14:11:41;12.33;;;11.03;;
29030;SDS011;16122;50.236;11.734;2023-06-10T14:14:07;12.30;;;10.80;;
29030;SDS011;16122;50.236;11.734;2023-06-10T14:16:33;12.40;;;11.17;;
29030;SDS011;16122;50.236;11.734;2023-06-10T14:18:59;12.70;;;11.40;;
29030;SDS011;16122;50.236;11.734;2023-06-10T14:21:25;12.17;;;10.77;;
29030;SDS011;16122;50.236;11.734;2023-06-10T14:23:51;10.77;;;9.70;;
29030;SDS011;16122;50.236;11.734;2023-06-10T14:26:18;10.97;;;9.80;;
29030;SDS011;16122;50.236;11.734;2023-06-10T14:28:46;12.53;;;11.23;;
29030;SDS011;16122;50.236;11.734;2023-06-10T14:31:15;10.20;;;9.30;;
29030;SDS011;16122;50.236;11.734;2023-06-10T14:33:41;11.77;;;10.67;;
29030;SDS011;16122;50.236;11.734;2023-06-10T14:36:09;11.90;;;9.90;;
29030;SDS011;16122;50.236;11.734;2023-06-10T14:38:35;10.27;;;9.37;;
29030;SDS011;16122;50.236;11.734;2023-06-10T14:41:01;10.53;;;9.53;;
29030;SDS011;16122;50.236;11.734;2023-06-10T14:43:27;9.80;;;8.83;;
29030;SDS011;16122;50.236;11.734;2023-06-10T14:45:53;10.60;;;9.50;;
29030;SDS011;16122;50.236;11.734;2023-06-10T14:48:21;10.00;;;9.10;;
29030;SDS011;16122;50.236;11.734;2023-06-10T14:50:46;9.00;;;8.20;;
29030;SDS011;16122;50.236;11.734;2023-06-10T14:53:16;9.50;;;8.70;;
29030;SDS011;16122;50.236;11.734;2023-06-10T14:55:43;10.80;;;9.77;;
29030;SDS011;16122;50.236;11.734;2023-06-10T14:58:08;9.47;;;8.57;;